Time;durP1;ratioP1;P1;durP2;ratioP2;P2;SDS_P1;SDS_P2;PMS_P1;PMS_P2;Temp;Humidity;BMP_temperature;BMP_pressure;BME280_temperature;BME280_humidity;BME280_pressure;Samples;Min_cycle;Max_cycle;Signal;HPM_P1;HPM_P2
2023/03/17 00:01:15;;;;;;;5.13;2.50;;;;;;;7.90;68.41;100700.97;5022781;28;20030;-76
2023/03/17 00:03:43;;;;;;;7.10;3.05;;;;;;;7.78;68.93;100701.13;5021168;28;20045;-76
2023/03/17 00:06:20;;;;;;;5.40;2.80;;;;;;;7.80;68.72;100693.25;5020056;28;20022;-79
2023/03/17 00:08:46;;;;;;;8.82;2.97;;;;;;;7.77;69.05;100680.63;5020147;28;20037;-78
2023/03/17 00:11:14;;;;;;;8.63;2.80;;;;;;;7.77;69.03;100678.84;5024597;28;20029;-78
2023/03/17 00:13:40;;;;;;;6.78;2.60;;;;;;;7.71;68.86;100683.78;5023321;28;20053;-77
2023/03/17 00:16:14;;;;;;;5.88;2.70;;;;;;;7.72;68.92;100681.06;5023561;28;20408;-78
2023/03/17 00:18:40;;;;;;;8.65;2.83;;;;;;;7.69;69.29;100683.09;5036929;28;20045;-79
2023/03/17 00:21:10;;;;;;;6.65;2.80;;;;;;;7.76;69.04;100676.41;5023987;28;20184;-78
2023/03/17 00:23:36;;;;;;;6.30;2.72;;;;;;;7.63;69.13;100666.41;5023218;28;20029;-77
2023/03/17 00:26:02;;;;;;;4.53;2.83;;;;;;;7.68;68.65;100674.53;5024787;28;20026;-78
2023/03/17 00:28:27;;;;;;;5.55;2.70;;;;;;;7.67;68.69;100674.69;5026304;28;20080;-78
2023/03/17 00:31:16;;;;;;;5.88;3.03;;;;;;;7.56;69.28;100679.03;5025950;28;20099;-77
2023/03/17 00:33:44;;;;;;;7.20;2.70;;;;;;;7.59;69.41;100681.34;5023268;28;20040;-77
2023/03/17 00:36:20;;;;;;;7.18;3.40;;;;;;;7.65;68.83;100681.72;5025731;28;20639;-77
2023/03/17 00:38:46;;;;;;;5.63;2.60;;;;;;;7.65;69.01;100663.66;5038126;28;20061;-80
2023/03/17 00:41:12;;;;;;;8.32;2.80;;;;;;;7.58;69.04;100660.84;5031225;28;20060;-78
2023/03/17 00:43:38;;;;;;;6.25;2.30;;;;;;;7.59;69.50;100660.72;5028414;28;20042;-77
2023/03/17 00:46:12;;;;;;;4.95;2.63;;;;;;;7.58;69.58;100647.94;5029046;28;20025;-78
2023/03/17 00:48:38;;;;;;;4.50;2.25;;;;;;;7.57;69.35;100636.81;5027463;28;20102;-76
2023/03/17 00:51:04;;;;;;;3.92;2.30;;;;;;;7.53;69.62;100632.88;5029090;28;20029;-77
2023/03/17 00:53:29;;;;;;;5.57;2.38;;;;;;;7.54;69.31;100636.28;5027455;28;20174;-77
2023/03/17 00:55:58;;;;;;;6.03;2.95;;;;;;;7.45;69.83;100632.75;5029344;28;20037;-78
2023/03/17 00:58:32;;;;;;;4.50;2.28;;;;;;;7.48;70.14;100636.81;5010201;28;20034;-77
2023/03/17 01:00:58;;;;;;;5.88;2.40;;;;;;;7.44;70.00;100622.56;5041865;28;20021;-78
2023/03/17 01:03:24;;;;;;;8.15;2.40;;;;;;;7.44;69.98;100613.09;5024719;28;20112;-80
2023/03/17 01:05:51;;;;;;;5.32;2.15;;;;;;;7.39;70.30;100620.44;5023670;28;20021;-78
2023/03/17 01:08:17;;;;;;;3.88;2.15;;;;;;;7.44;69.81;100615.66;5024734;28;20037;-77
2023/03/17 01:10:43;;;;;;;6.97;2.28;;;;;;;7.40;69.98;100609.97;5011235;28;20042;-77
2023/03/17 01:13:12;;;;;;;6.38;2.42;;;;;;;7.37;70.30;100605.09;5025114;28;20029;-78
2023/03/17 01:15:45;;;;;;;4.80;2.72;;;;;;;7.35;70.50;100593.28;5024852;28;20045;-78
2023/03/17 01:18:14;;;;;;;5.32;2.50;;;;;;;7.39;70.08;100602.38;5042555;28;20036;-77
2023/03/17 01:20:41;;;;;;;5.82;2.20;;;;;;;7.29;70.68;100586.09;5023155;28;20119;-77
2023/03/17 01:23:08;;;;;;;5.30;2.60;;;;;;;7.30;70.40;100572.25;5039497;28;20026;-78
2023/03/17 01:25:34;;;;;;;8.65;3.30;;;;;;;7.33;70.34;100571.97;5006601;28;20569;-77
2023/03/17 01:28:00;;;;;;;7.05;2.17;;;;;;;7.32;70.15;100566.00;5032930;28;20066;-77
2023/03/17 01:30:30;;;;;;;7.25;3.40;;;;;;;7.33;69.96;100569.41;5022084;28;20045;-77
2023/03/17 01:32:57;;;;;;;5.63;2.00;;;;;;;7.34;70.11;100574.41;5033664;28;20089;-76
2023/03/17 01:35:25;;;;;;;7.03;2.10;;;;;;;7.30;70.44;100574.81;5023347;28;20045;-78
2023/03/17 01:37:51;;;;;;;6.25;2.60;;;;;;;7.21;70.46;100582.47;5028828;28;20060;-79
2023/03/17 01:40:23;;;;;;;7.32;2.55;;;;;;;7.30;70.19;100578.22;5027370;28;20507;-77
2023/03/17 01:42:59;;;;;;;6.35;2.40;;;;;;;7.19;70.47;100581.75;5026759;28;20021;-77
2023/03/17 01:46:02;;;;;;;6.30;2.40;;;;;;;7.27;70.24;100578.50;5024037;28;20123;-77
2023/03/17 01:48:30;;;;;;;5.80;2.42;;;;;;;7.25;70.33;100582.97;5024437;28;20087;-78
2023/03/17 01:50:57;;;;;;;4.45;2.22;;;;;;;7.25;70.59;100584.75;5040540;28;20116;-77
2023/03/17 01:53:24;;;;;;;6.78;2.70;;;;;;;7.26;70.84;100581.22;5025491;28;20033;-77
2023/03/17 01:55:50;;;;;;;7.78;2.25;;;;;;;7.23;70.57;100584.88;5027198;28;20673;-79
2023/03/17 01:58:20;;;;;;;5.18;2.60;;;;;;;7.14;71.06;100580.56;5027630;28;20511;-77
2023/03/17 02:00:46;;;;;;;4.10;2.03;;;;;;;7.16;71.18;100586.41;5025124;28;20034;-77
2023/03/17 02:03:11;;;;;;;5.65;2.33;;;;;;;7.14;71.59;100588.28;5010968;28;20564;-77
2023/03/17 02:05:38;;;;;;;4.72;2.10;;;;;;;7.16;71.54;100591.56;5026289;28;20029;-77
2023/03/17 02:08:12;;;;;;;5.40;2.30;;;;;;;7.08;71.25;100599.97;5028763;28;20642;-77
2023/03/17 02:10:39;;;;;;;4.15;2.30;;;;;;;7.08;71.65;100591.41;5021464;28;20046;-77
2023/03/17 02:13:09;;;;;;;4.25;2.20;;;;;;;7.12;71.65;100585.88;5043849;28;20038;-77
2023/03/17 02:15:49;;;;;;;4.57;2.33;;;;;;;7.07;71.78;100582.06;5022769;28;20037;-78
2023/03/17 02:18:17;;;;;;;7.78;2.20;;;;;;;7.08;71.63;100573.38;5007595;28;20041;-76
2023/03/17 02:20:45;;;;;;;9.23;2.25;;;;;;;7.02;71.88;100570.38;5009867;28;20064;-77
2023/03/17 02:23:14;;;;;;;5.32;2.63;;;;;;;6.98;71.72;100576.78;5026187;28;20196;-79
2023/03/17 02:25:42;;;;;;;5.00;2.15;;;;;;;6.94;72.33;100574.63;5039212;28;20411;-77
2023/03/17 02:28:12;;;;;;;4.82;2.40;;;;;;;6.95;72.05;100578.81;5009207;28;20029;-76
2023/03/17 02:30:40;;;;;;;6.10;2.63;;;;;;;7.05;71.95;100577.06;5022820;28;20060;-78
2023/03/17 02:33:06;;;;;;;5.82;2.83;;;;;;;6.93;72.17;100576.41;5025268;28;20038;-77
2023/03/17 02:35:31;;;;;;;5.60;2.35;;;;;;;6.91;72.60;100567.16;5024276;28;20518;-78
2023/03/17 02:37:57;;;;;;;6.00;2.50;;;;;;;6.89;72.85;100571.63;5025535;28;20037;-77
2023/03/17 02:40:23;;;;;;;6.00;2.25;;;;;;;6.83;72.80;100578.16;5009521;28;20042;-77
2023/03/17 02:42:50;;;;;;;9.02;2.80;;;;;;;6.88;72.67;100572.59;5028043;28;20021;-77
2023/03/17 02:45:16;;;;;;;6.68;2.92;;;;;;;6.77;72.95;100565.81;5038954;28;20392;-77
2023/03/17 02:47:44;;;;;;;5.10;2.50;;;;;;;6.75;73.33;100565.16;5024749;28;20033;-77
2023/03/17 02:50:18;;;;;;;6.97;2.95;;;;;;;6.75;73.35;100565.16;5025687;28;20102;-76
2023/03/17 02:52:44;;;;;;;6.00;2.83;;;;;;;6.71;73.55;100564.59;5025009;28;20048;-77
2023/03/17 02:55:09;;;;;;;5.90;2.58;;;;;;;6.72;73.93;100558.47;5022776;28;20034;-77
2023/03/17 02:57:35;;;;;;;7.45;2.60;;;;;;;6.70;73.58;100560.38;5027395;28;20037;-77
2023/03/17 03:00:01;;;;;;;6.43;3.00;;;;;;;6.69;74.09;100563.13;5022341;28;20447;-77
2023/03/17 03:02:26;;;;;;;6.20;2.50;;;;;;;6.67;73.82;100562.41;5025663;28;20103;-80
2023/03/17 03:04:52;;;;;;;6.30;2.85;;;;;;;6.59;73.94;100563.94;5024951;28;20053;-78
2023/03/17 03:07:17;;;;;;;4.38;2.28;;;;;;;6.58;74.30;100567.44;5025206;28;20033;-77
2023/03/17 03:09:43;;;;;;;5.30;2.72;;;;;;;6.63;73.95;100569.63;5024062;28;20041;-77
2023/03/17 03:12:09;;;;;;;9.20;3.13;;;;;;;6.62;73.59;100570.56;5023999;28;20038;-80
2023/03/17 03:14:35;;;;;;;8.55;3.00;;;;;;;6.58;74.42;100571.78;5037159;28;20041;-77
2023/03/17 03:17:01;;;;;;;5.57;2.80;;;;;;;6.47;74.79;100572.72;5026440;28;20033;-77
2023/03/17 03:19:27;;;;;;;7.75;2.50;;;;;;;6.56;74.38;100553.91;5026802;28;20060;-77
2023/03/17 03:21:52;;;;;;;4.80;2.30;;;;;;;6.49;74.38;100557.94;5024452;28;20029;-77
2023/03/17 03:24:18;;;;;;;9.65;2.80;;;;;;;6.49;74.93;100552.00;5025100;28;20084;-76
2023/03/17 03:26:43;;;;;;;11.23;3.03;;;;;;;6.42;75.33;100554.28;5025848;28;20025;-76
2023/03/17 03:29:09;;;;;;;8.43;2.80;;;;;;;6.48;74.88;100548.63;5043110;28;20045;-77
2023/03/17 03:31:34;;;;;;;4.72;2.70;;;;;;;6.40;75.25;100543.31;5024989;28;20041;-76
2023/03/17 03:34:00;;;;;;;10.40;2.75;;;;;;;6.41;75.15;100539.78;5025082;28;20508;-76
2023/03/17 03:36:26;;;;;;;4.50;2.80;;;;;;;6.41;75.34;100553.47;5026007;28;20427;-76
2023/03/17 03:38:51;;;;;;;5.43;3.10;;;;;;;6.38;75.29;100542.63;5024957;28;20042;-77
2023/03/17 03:41:17;;;;;;;5.07;2.80;;;;;;;6.36;75.18;100545.34;5022075;28;20884;-77
2023/03/17 03:43:42;;;;;;;7.68;3.13;;;;;;;6.36;75.78;100549.69;5024017;28;20037;-77
2023/03/17 03:46:08;;;;;;;6.35;2.85;;;;;;;6.37;75.26;100556.47;5024815;28;20491;-77
2023/03/17 03:48:33;;;;;;;5.07;2.65;;;;;;;6.34;75.61;100564.47;5024634;28;20033;-78
2023/03/17 03:51:01;;;;;;;5.72;2.83;;;;;;;6.30;75.54;100555.38;5020040;28;20036;-77
2023/03/17 03:53:27;;;;;;;7.72;3.03;;;;;;;6.36;75.67;100570.28;5044959;23;20049;-74
2023/03/17 03:55:53;;;;;;;9.20;3.15;;;;;;;6.27;75.94;100569.31;5061579;28;20028;-74
2023/03/17 03:58:19;;;;;;;6.55;2.53;;;;;;;6.29;76.01;100574.34;5043488;28;20047;-73
2023/03/17 04:00:45;;;;;;;6.88;2.85;;;;;;;6.26;76.06;100579.78;5040523;28;20063;-73
2023/03/17 04:03:11;;;;;;;5.22;2.72;;;;;;;6.28;75.36;100588.97;5026694;28;20033;-74
2023/03/17 04:05:37;;;;;;;10.50;3.72;;;;;;;6.26;76.02;100572.03;5025844;28;20522;-73
2023/03/17 04:08:02;;;;;;;3.65;2.17;;;;;;;6.34;75.46;100570.41;5013001;28;20048;-73
2023/03/17 04:10:28;;;;;;;5.57;2.38;;;;;;;6.33;75.15;100568.81;5039017;28;20044;-74
2023/03/17 04:12:54;;;;;;;7.82;3.05;;;;;;;6.34;75.21;100569.59;5044288;28;20158;-73
2023/03/17 04:15:20;;;;;;;5.40;2.70;;;;;;;6.29;75.77;100572.59;5030201;28;20037;-74
2023/03/17 04:17:45;;;;;;;9.23;3.42;;;;;;;6.29;75.87;100569.19;5033540;28;20032;-73
2023/03/17 04:20:13;;;;;;;7.68;3.40;;;;;;;6.24;76.04;100570.41;5031196;28;20092;-73
2023/03/17 04:22:39;;;;;;;8.65;3.28;;;;;;;6.24;75.98;100554.94;5046106;28;20043;-73
2023/03/17 04:25:06;;;;;;;5.95;3.15;;;;;;;6.26;76.11;100556.59;5026845;28;20063;-74
2023/03/17 04:27:32;;;;;;;9.18;3.53;;;;;;;6.25;76.35;100563.47;5036756;28;20549;-73
2023/03/17 04:29:57;;;;;;;6.63;3.17;;;;;;;6.13;77.05;100567.94;5028144;28;20033;-73
2023/03/17 04:32:22;;;;;;;5.25;2.85;;;;;;;6.16;76.56;100564.28;5028970;28;20395;-74
2023/03/17 04:34:48;;;;;;;9.38;3.10;;;;;;;6.16;76.33;100564.28;5028323;28;20068;-73
2023/03/17 04:37:13;;;;;;;8.38;3.08;;;;;;;6.23;76.19;100558.50;5047422;28;20032;-74
2023/03/17 04:39:39;;;;;;;8.38;2.83;;;;;;;6.18;76.14;100560.66;5047757;23;20795;-71
2023/03/17 04:42:05;;;;;;;6.15;2.85;;;;;;;6.35;75.71;100564.31;5008974;28;20050;-71
2023/03/17 04:44:31;;;;;;;7.10;2.85;;;;;;;6.28;75.83;100550.34;5021833;28;20073;-71
2023/03/17 04:46:57;;;;;;;6.68;3.00;;;;;;;6.27;75.96;100537.59;4992977;28;20018;-71
2023/03/17 04:49:22;;;;;;;5.60;2.90;;;;;;;6.18;76.29;100544.38;5014613;28;20450;-71
2023/03/17 04:51:48;;;;;;;9.82;3.70;;;;;;;6.20;76.41;100547.66;5026420;28;20037;-71
2023/03/17 04:54:15;;;;;;;8.88;3.33;;;;;;;6.18;76.77;100562.41;5028114;28;20382;-71
2023/03/17 04:56:40;;;;;;;3.75;2.80;;;;;;;6.18;76.29;100565.00;5045118;28;20068;-71
2023/03/17 04:59:06;;;;;;;4.85;2.85;;;;;;;6.15;76.73;100565.25;5024908;28;20042;-71
2023/03/17 05:01:31;;;;;;;7.60;3.08;;;;;;;6.21;76.06;100560.34;5008659;28;20099;-72
2023/03/17 05:03:57;;;;;;;7.03;2.80;;;;;;;6.16;76.50;100557.41;5024017;28;20451;-71
2023/03/17 05:06:23;;;;;;;5.78;3.13;;;;;;;6.15;76.47;100562.66;5027791;28;20028;-71
2023/03/17 05:08:48;;;;;;;9.43;3.08;;;;;;;6.22;76.66;100572.31;5026530;28;20044;-71
2023/03/17 05:11:14;;;;;;;6.28;2.80;;;;;;;6.24;76.57;100569.59;5026539;28;20025;-71
2023/03/17 05:13:40;;;;;;;6.25;3.08;;;;;;;6.20;76.49;100563.09;5028744;28;20500;-71
2023/03/17 05:16:06;;;;;;;5.70;3.08;;;;;;;6.13;76.48;100572.28;5026828;28;20021;-71
2023/03/17 05:18:32;;;;;;;8.25;3.30;;;;;;;6.09;77.32;100570.94;5024723;28;20585;-72
2023/03/17 05:20:58;;;;;;;5.63;3.10;;;;;;;5.99;77.25;100566.56;5024628;28;20095;-71
2023/03/17 05:23:24;;;;;;;10.68;3.97;;;;;;;6.02;77.31;100566.28;5040665;28;20033;-71
2023/03/17 05:25:51;;;;;;;7.18;4.85;;;;;;;6.02;77.34;100571.44;5029533;28;20060;-72
2023/03/17 05:28:18;;;;;;;6.53;3.55;;;;;;;6.04;77.52;100571.31;5030552;28;20065;-71
2023/03/17 05:30:44;;;;;;;6.43;3.17;;;;;;;6.03;77.55;100567.94;5025379;28;20103;-71
2023/03/17 05:33:10;;;;;;;6.55;3.80;;;;;;;6.01;77.50;100574.97;5024497;28;20077;-71
2023/03/17 05:35:37;;;;;;;4.82;3.35;;;;;;;6.09;77.25;100560.63;5023966;28;20550;-71
2023/03/17 05:38:02;;;;;;;8.00;3.90;;;;;;;6.01;77.42;100561.28;5008710;28;20041;-71
2023/03/17 05:40:28;;;;;;;9.25;3.78;;;;;;;6.04;77.45;100564.38;5023107;28;20042;-71
2023/03/17 05:42:53;;;;;;;6.35;3.45;;;;;;;5.91;78.18;100556.06;5025792;28;20041;-71
2023/03/17 05:45:19;;;;;;;7.32;3.20;;;;;;;6.09;77.41;100558.88;5038518;28;20037;-71
2023/03/17 05:47:44;;;;;;;8.68;3.70;;;;;;;6.02;77.32;100550.03;5028823;28;20441;-71
2023/03/17 05:50:11;;;;;;;11.18;4.25;;;;;;;6.12;77.22;100552.63;5026324;28;20132;-71
2023/03/17 05:52:37;;;;;;;6.18;3.30;;;;;;;6.02;77.60;100557.75;5027992;28;20109;-71
2023/03/17 05:55:04;;;;;;;6.88;3.13;;;;;;;6.02;78.02;100553.41;5026150;28;20041;-71
2023/03/17 05:57:30;;;;;;;11.00;3.85;;;;;;;5.96;78.08;100548.00;5031941;28;20061;-71
2023/03/17 05:59:56;;;;;;;6.88;3.38;;;;;;;5.96;78.17;100555.72;5042238;28;20103;-71
2023/03/17 06:02:22;;;;;;;7.03;3.42;;;;;;;6.03;77.95;100557.63;5025089;28;20084;-71
2023/03/17 06:04:48;;;;;;;8.40;3.78;;;;;;;6.02;77.84;100555.19;5020950;28;20034;-71
2023/03/17 06:07:14;;;;;;;6.88;3.20;;;;;;;5.97;77.63;100550.44;5010947;28;20045;-71
2023/03/17 06:09:40;;;;;;;5.55;3.83;;;;;;;5.99;77.83;100545.13;5047842;28;20470;-71
2023/03/17 06:12:07;;;;;;;8.00;3.88;;;;;;;5.96;77.83;100541.09;5023050;28;20037;-71
2023/03/17 06:14:32;;;;;;;8.05;3.50;;;;;;;6.05;77.95;100547.22;5026684;28;20042;-71
2023/03/17 06:16:58;;;;;;;8.27;3.63;;;;;;;6.10;77.52;100542.44;5025755;28;20480;-71
2023/03/17 06:19:23;;;;;;;5.70;3.83;;;;;;;6.05;77.77;100544.63;5026998;28;20049;-72
2023/03/17 06:21:49;;;;;;;6.80;3.17;;;;;;;6.08;77.41;100541.78;5026914;28;20045;-71
2023/03/17 06:24:15;;;;;;;8.77;3.40;;;;;;;6.12;77.88;100545.75;5023081;28;20040;-71
2023/03/17 06:26:41;;;;;;;12.07;4.38;;;;;;;6.19;77.65;100546.00;5027448;28;20029;-71
2023/03/17 06:29:11;;;;;;;9.52;3.33;;;;;;;6.18;77.24;100549.53;5019259;28;20046;-71
2023/03/17 06:31:36;;;;;;;9.88;4.22;;;;;;;6.23;77.36;100547.34;5025497;28;20112;-71
2023/03/17 06:34:03;;;;;;;8.63;3.30;;;;;;;6.31;77.24;100542.38;5025721;28;20498;-71
2023/03/17 06:36:29;;;;;;;8.15;3.95;;;;;;;6.29;76.98;100544.28;5025967;28;20053;-71
2023/03/17 06:38:55;;;;;;;8.45;3.22;;;;;;;6.34;76.75;100543.84;5021297;28;20037;-71
2023/03/17 06:41:21;;;;;;;6.60;3.33;;;;;;;6.42;76.47;100551.72;5012250;28;20450;-70
2023/03/17 06:43:46;;;;;;;7.03;3.28;;;;;;;6.54;76.37;100549.84;5025032;28;20489;-71
2023/03/17 06:46:12;;;;;;;8.20;3.63;;;;;;;6.53;75.81;100550.78;5029211;28;20044;-71
2023/03/17 06:48:37;;;;;;;8.25;3.53;;;;;;;6.60;76.30;100546.72;5021942;28;20076;-71
2023/03/17 06:51:04;;;;;;;7.40;3.42;;;;;;;6.70;75.42;100550.09;5026009;28;20041;-71
2023/03/17 06:53:30;;;;;;;5.93;3.10;;;;;;;6.91;75.41;100551.69;5004445;28;20098;-71
2023/03/17 06:55:56;;;;;;;5.82;3.53;;;;;;;7.11;74.10;100560.22;5022906;28;20087;-71
2023/03/17 06:58:23;;;;;;;7.07;3.80;;;;;;;7.19;73.65;100555.97;5023600;28;20037;-72
2023/03/17 07:43:11;;;;;;;7.57;3.28;;;;;;;8.63;68.58;100552.94;4986156;28;20468;-71
2023/03/17 16:05:29;;;;;;;6.07;1.70;;;;;;;15.92;55.51;100311.22;5060690;28;20044;-73
2023/03/17 16:07:55;;;;;;;5.40;1.80;;;;;;;15.93;55.72;100318.06;5073476;28;20021;-73
2023/03/17 16:10:23;;;;;;;6.82;1.90;;;;;;;15.88;56.13;100322.28;5080264;28;20170;-73
2023/03/17 16:12:49;;;;;;;3.60;1.70;;;;;;;15.87;55.65;100320.69;5067196;28;20103;-73
2023/03/17 16:15:26;;;;;;;4.22;2.17;;;;;;;15.87;55.12;100316.25;5056076;28;20098;-72
2023/03/17 16:17:55;;;;;;;8.27;1.77;;;;;;;15.94;53.90;100317.06;5060258;28;20028;-72
2023/03/17 16:20:25;;;;;;;3.83;1.67;;;;;;;15.82;53.07;100317.88;5044562;28;20153;-72
2023/03/17 16:23:22;;;;;;;4.70;2.00;;;;;;;15.73;53.31;100325.09;5066141;28;20506;-72
2023/03/17 16:25:48;;;;;;;7.88;1.58;;;;;;;15.70;52.63;100318.44;5061326;28;20498;-72
2023/03/17 16:28:15;;;;;;;4.38;1.30;;;;;;;15.59;52.28;100308.59;5065161;28;20040;-73
2023/03/17 16:30:40;;;;;;;3.47;1.98;;;;;;;15.54;52.07;100308.41;5065434;28;20512;-72
2023/03/17 16:33:24;;;;;;;7.95;2.42;;;;;;;15.44;52.76;100319.22;5059558;28;20528;-73
2023/03/17 16:35:52;;;;;;;9.90;3.17;;;;;;;15.40;52.79;100315.41;5076422;28;20056;-72
2023/03/17 16:38:24;;;;;;;13.00;3.25;;;;;;;15.33;53.20;100336.31;5063431;28;20042;-73
2023/03/17 16:40:53;;;;;;;10.45;2.83;;;;;;;15.28;53.46;100330.88;5049108;28;20053;-73
2023/03/17 16:43:23;;;;;;;8.43;3.72;;;;;;;15.19;53.70;100347.72;5065381;28;20106;-72
2023/03/17 16:45:50;;;;;;;9.40;2.83;;;;;;;15.11;54.01;100350.53;5062710;28;20052;-73
2023/03/17 16:48:16;;;;;;;6.85;3.15;;;;;;;15.03;54.83;100361.94;5077399;28;20036;-73
2023/03/17 16:50:43;;;;;;;11.68;3.20;;;;;;;15.01;54.53;100357.91;5058340;28;20426;-72
2023/03/17 16:53:09;;;;;;;5.57;1.85;;;;;;;15.00;54.55;100362.34;5045034;28;20039;-73
2023/03/17 16:55:35;;;;;;;9.85;2.08;;;;;;;15.05;54.68;100369.56;5057445;28;20470;-72
2023/03/17 16:58:21;;;;;;;8.05;2.42;;;;;;;14.89;55.36;100368.13;5050691;28;20033;-73
2023/03/17 17:00:48;;;;;;;8.25;1.70;;;;;;;14.89;55.25;100375.94;5050592;28;20094;-73
2023/03/17 17:03:14;;;;;;;7.03;1.92;;;;;;;14.85;55.55;100372.91;5059768;28;20025;-73
2023/03/17 17:05:41;;;;;;;5.45;1.50;;;;;;;14.81;54.42;100378.72;5038169;28;20037;-72
2023/03/17 17:08:06;;;;;;;9.52;1.80;;;;;;;14.74;54.79;100382.09;5066598;28;20422;-73
2023/03/17 17:10:33;;;;;;;10.10;1.92;;;;;;;14.65;55.38;100385.06;5053753;28;20041;-72
2023/03/17 17:13:00;;;;;;;10.85;2.13;;;;;;;14.59;55.29;100403.09;5065570;28;20443;-72
2023/03/17 17:15:27;;;;;;;4.88;1.65;;;;;;;14.47;55.41;100391.56;5063343;28;20047;-73
2023/03/17 17:18:01;;;;;;;14.27;1.80;;;;;;;14.50;55.16;100403.41;5060909;28;20036;-73
2023/03/17 17:20:36;;;;;;;4.78;1.40;;;;;;;14.45;54.82;100403.97;5063976;28;20032;-72
2023/03/17 17:23:03;;;;;;;8.23;1.70;;;;;;;14.45;55.06;100417.03;5076290;28;20506;-73
2023/03/17 17:25:29;;;;;;;3.78;1.65;;;;;;;14.38;55.05;100398.72;5052350;28;20048;-73
2023/03/17 17:27:56;;;;;;;2.65;1.45;;;;;;;14.37;54.89;100397.13;5067946;28;20024;-72
2023/03/17 17:30:24;;;;;;;12.55;1.80;;;;;;;14.21;55.30;100394.78;5051728;28;20053;-72
2023/03/17 17:32:50;;;;;;;4.13;1.30;;;;;;;14.20;55.49;100385.34;5065072;28;20107;-72
2023/03/17 17:35:16;;;;;;;7.25;1.60;;;;;;;14.09;55.94;100381.47;5054441;28;20037;-73
2023/03/17 17:37:42;;;;;;;6.65;1.90;;;;;;;14.19;55.75;100391.56;5061206;28;20555;-73
2023/03/17 17:40:11;;;;;;;5.45;1.65;;;;;;;14.13;56.83;100393.13;5063397;28;20041;-72
2023/03/17 17:42:38;;;;;;;7.78;2.00;;;;;;;14.12;57.83;100396.72;5062251;28;20033;-73
2023/03/17 17:45:04;;;;;;;5.38;1.85;;;;;;;14.04;57.42;100396.84;5045948;28;20050;-73
2023/03/17 17:47:31;;;;;;;9.20;1.67;;;;;;;13.94;59.20;100393.78;5058475;28;20322;-72
2023/03/17 17:49:57;;;;;;;8.18;2.88;;;;;;;13.82;60.12;100383.88;5059520;28;20064;-72
2023/03/17 17:52:23;;;;;;;11.00;1.63;;;;;;;13.81;60.50;100387.44;5060809;28;20119;-72
2023/03/17 17:54:49;;;;;;;9.45;1.83;;;;;;;13.67;61.18;100416.16;5057131;28;20037;-72
2023/03/17 17:57:15;;;;;;;4.50;1.83;;;;;;;13.68;61.54;100441.25;5049673;28;21093;-73
2023/03/17 17:59:41;;;;;;;5.32;1.75;;;;;;;13.65;61.45;100450.22;5061939;28;20040;-72
2023/03/17 18:02:08;;;;;;;8.10;1.83;;;;;;;13.57;61.63;100458.16;5061035;28;20040;-72
2023/03/17 18:04:34;;;;;;;4.43;1.65;;;;;;;13.50;61.72;100454.66;5055202;28;20052;-73
2023/03/17 18:07:00;;;;;;;8.48;2.10;;;;;;;13.51;61.46;100453.69;5059342;28;20037;-73
2023/03/17 18:09:26;;;;;;;7.50;1.77;;;;;;;13.39;61.47;100456.75;5053147;28;20024;-72
2023/03/17 18:11:52;;;;;;;15.23;2.30;;;;;;;13.33;62.06;100460.06;5059210;28;20033;-73
2023/03/17 18:14:18;;;;;;;9.90;1.92;;;;;;;13.32;61.95;100457.69;5051376;28;20090;-72
2023/03/17 18:16:43;;;;;;;10.68;1.85;;;;;;;13.37;61.84;100461.34;5059434;28;20208;-72
2023/03/17 18:19:12;;;;;;;5.30;1.92;;;;;;;13.27;62.08;100473.78;5038441;28;20045;-73
2023/03/17 18:21:37;;;;;;;4.80;1.88;;;;;;;13.17;63.21;100478.50;5058791;28;20025;-73
2023/03/17 18:24:03;;;;;;;7.03;1.90;;;;;;;13.09;63.56;100465.53;5072830;28;20541;-72
2023/03/17 18:26:30;;;;;;;3.97;1.73;;;;;;;13.13;63.22;100467.63;5062690;28;20024;-72
2023/03/17 18:28:56;;;;;;;6.40;2.08;;;;;;;13.06;63.25;100458.91;5053246;28;20040;-72
2023/03/17 18:31:26;;;;;;;6.22;2.10;;;;;;;13.01;63.93;100451.63;5060595;28;20081;-71
2023/03/17 18:33:56;;;;;;;5.75;2.00;;;;;;;13.00;63.85;100446.63;5057014;28;20406;-72
2023/03/17 18:36:21;;;;;;;5.47;2.38;;;;;;;13.02;63.14;100455.06;5054593;28;21641;-72
2023/03/17 18:38:47;;;;;;;5.90;1.88;;;;;;;13.00;63.55;100457.84;5062684;28;20041;-73
2023/03/17 18:41:13;;;;;;;11.10;2.42;;;;;;;12.94;63.76;100470.75;5054962;28;20028;-72
2023/03/17 18:43:40;;;;;;;10.65;2.22;;;;;;;12.99;63.55;100461.41;5055273;28;20056;-73
2023/03/17 18:46:06;;;;;;;7.35;2.38;;;;;;;12.95;63.92;100465.38;5062186;28;20111;-72
2023/03/17 18:48:31;;;;;;;9.40;2.03;;;;;;;12.84;64.48;100468.41;5074525;28;20097;-72
2023/03/17 18:50:57;;;;;;;5.68;1.85;;;;;;;12.85;64.03;100480.44;5077072;28;20510;-73
2023/03/17 18:53:22;;;;;;;5.05;2.15;;;;;;;12.79;64.59;100475.94;5054912;28;20040;-73
2023/03/17 18:55:48;;;;;;;5.72;2.00;;;;;;;12.83;64.55;100470.22;5058640;28;20089;-72
2023/03/17 18:58:14;;;;;;;8.55;1.92;;;;;;;12.76;65.25;100469.31;5044188;28;20082;-72
2023/03/17 19:00:40;;;;;;;5.50;2.15;;;;;;;12.79;64.99;100465.53;5044785;28;20044;-72
2023/03/17 19:03:05;;;;;;;12.40;2.97;;;;;;;12.75;65.35;100470.31;5057759;28;20064;-72
2023/03/17 19:05:36;;;;;;;8.45;2.67;;;;;;;12.79;64.87;100468.13;5056668;28;20036;-72
2023/03/17 19:08:02;;;;;;;7.75;3.25;;;;;;;12.81;64.71;100461.78;5058363;28;20037;-72
2023/03/17 19:10:27;;;;;;;7.63;2.13;;;;;;;12.78;65.02;100467.34;5040622;28;20037;-73
2023/03/17 19:12:53;;;;;;;4.10;2.05;;;;;;;12.67;65.60;100472.97;5058104;28;20389;-72
2023/03/17 19:15:19;;;;;;;11.00;2.55;;;;;;;12.58;66.32;100477.47;5064320;28;20047;-73
2023/03/17 19:17:45;;;;;;;10.07;2.50;;;;;;;12.60;66.17;100469.47;5058519;28;20024;-72
2023/03/17 19:20:12;;;;;;;15.13;2.10;;;;;;;12.64;66.10;100471.56;5048466;28;20047;-72
2023/03/17 19:22:37;;;;;;;9.43;2.60;;;;;;;12.62;66.56;100463.13;5057786;28;20395;-73
2023/03/17 19:25:03;;;;;;;14.57;2.10;;;;;;;12.53;66.41;100465.97;5056220;23;20620;-73
2023/03/17 19:27:28;;;;;;;13.88;2.75;;;;;;;12.42;67.60;100459.41;5056526;28;20063;-72
2023/03/17 19:29:54;;;;;;;10.48;2.40;;;;;;;12.39;67.25;100454.53;5025108;28;20040;-73
2023/03/17 19:32:19;;;;;;;8.50;2.10;;;;;;;12.47;67.16;100457.09;5029540;28;20035;-73
2023/03/17 19:34:46;;;;;;;7.10;1.85;;;;;;;12.38;67.60;100460.75;5041480;28;20051;-73
2023/03/17 19:37:12;;;;;;;12.07;3.17;;;;;;;12.42;67.22;100464.59;5042606;28;20116;-73
2023/03/17 19:39:37;;;;;;;8.55;2.28;;;;;;;12.40;67.29;100458.78;5038152;28;20063;-73
2023/03/17 19:42:03;;;;;;;6.78;2.25;;;;;;;12.36;67.39;100460.13;5035887;28;20407;-72
2023/03/17 19:44:28;;;;;;;14.52;2.92;;;;;;;12.30;67.41;100464.22;5022765;28;20036;-73
2023/03/17 19:46:54;;;;;;;6.35;3.08;;;;;;;12.38;67.52;100465.94;5024356;28;20036;-73
2023/03/17 19:49:20;;;;;;;6.82;3.03;;;;;;;12.32;67.69;100464.84;5041755;28;20406;-72
2023/03/17 19:51:46;;;;;;;5.15;2.78;;;;;;;12.33;67.90;100474.25;5044491;28;20051;-72
2023/03/17 19:54:12;;;;;;;9.77;2.60;;;;;;;12.34;67.70;100477.66;5045748;28;20088;-73
2023/03/17 19:56:38;;;;;;;7.47;2.53;;;;;;;12.27;68.34;100474.97;5043788;28;20077;-73
2023/03/17 19:59:04;;;;;;;10.02;2.53;;;;;;;12.25;68.21;100475.13;5023571;28;20462;-72
2023/03/17 20:01:30;;;;;;;8.18;2.35;;;;;;;12.17;68.46;100485.59;5045703;28;20067;-72
2023/03/17 20:03:59;;;;;;;7.90;2.75;;;;;;;12.22;68.27;100485.06;5057788;28;20041;-72
2023/03/17 20:06:26;;;;;;;7.53;2.35;;;;;;;12.26;68.12;100488.94;5039796;28;20371;-72
2023/03/17 20:08:51;;;;;;;7.15;2.50;;;;;;;12.19;68.44;100481.03;5029260;28;20040;-73
2023/03/17 20:11:18;;;;;;;7.97;2.67;;;;;;;12.15;68.82;100487.56;5060771;28;20498;-73
2023/03/17 20:13:44;;;;;;;8.27;2.90;;;;;;;12.11;69.17;100490.66;5058194;28;20028;-73
2023/03/17 20:16:11;;;;;;;4.70;2.00;;;;;;;12.20;69.07;100489.63;5045887;28;20032;-73
2023/03/17 20:18:37;;;;;;;5.93;2.30;;;;;;;12.17;68.91;100492.59;5044964;28;20064;-73
2023/03/17 20:21:04;;;;;;;12.60;2.80;;;;;;;12.12;69.20;100495.69;5054472;28;20041;-72
2023/03/17 20:23:30;;;;;;;9.18;2.40;;;;;;;12.17;69.07;100498.59;5042504;28;20033;-73
2023/03/17 20:25:56;;;;;;;5.13;2.33;;;;;;;12.22;68.91;100496.28;5045193;28;20528;-73
2023/03/17 20:28:22;;;;;;;6.22;2.25;;;;;;;12.11;69.50;100493.25;5047646;28;20086;-72
2023/03/17 20:30:48;;;;;;;13.95;3.00;;;;;;;12.07;69.62;100501.44;5061812;28;20406;-72